sensor_id;sensor_type;location;lat;lon;timestamp;pressure;altitude;pressure_sealevel;temperature
15680;BMP180;15488;48.114;11.532;2023-03-31T00:00:18;94941.00;;;17.50
15680;BMP180;15488;48.114;11.532;2023-03-31T00:02:46;94931.00;;;17.40
15680;BMP180;15488;48.114;11.532;2023-03-31T00:05:13;94927.00;;;17.50
15680;BMP180;15488;48.114;11.532;2023-03-31T00:07:43;94935.00;;;17.40
15680;BMP180;15488;48.114;11.532;2023-03-31T00:10:11;94922.00;;;17.40
15680;BMP180;15488;48.114;11.532;2023-03-31T00:12:39;94914.00;;;17.40
15680;BMP180;15488;48.114;11.532;2023-03-31T00:15:09;94903.00;;;17.40
15680;BMP180;15488;48.114;11.532;2023-03-31T00:17:36;94900.00;;;17.40
15680;BMP180;15488;48.114;11.532;2023-03-31T00:20:05;94895.00;;;17.40
15680;BMP180;15488;48.114;11.532;2023-03-31T00:22:37;94895.00;;;17.40
15680;BMP180;15488;48.114;11.532;2023-03-31T00:25:08;94894.00;;;17.40
15680;BMP180;15488;48.114;11.532;2023-03-31T00:27:36;94886.00;;;17.40
15680;BMP180;15488;48.114;11.532;2023-03-31T00:30:04;94887.00;;;17.40
15680;BMP180;15488;48.114;11.532;2023-03-31T00:32:34;94880.00;;;17.40
15680;BMP180;15488;48.114;11.532;2023-03-31T00:35:01;94881.00;;;17.40
15680;BMP180;15488;48.114;11.532;2023-03-31T00:37:29;94880.00;;;17.50
15680;BMP180;15488;48.114;11.532;2023-03-31T00:39:58;94870.00;;;17.40
15680;BMP180;15488;48.114;11.532;2023-03-31T00:42:26;94864.00;;;17.40
15680;BMP180;15488;48.114;11.532;2023-03-31T00:45:20;94862.00;;;17.40
15680;BMP180;15488;48.114;11.532;2023-03-31T00:47:53;94853.00;;;17.40
15680;BMP180;15488;48.114;11.532;2023-03-31T00:50:24;94846.00;;;17.40
15680;BMP180;15488;48.114;11.532;2023-03-31T00:52:55;94846.00;;;17.40
15680;BMP180;15488;48.114;11.532;2023-03-31T00:55:30;94849.00;;;17.50
15680;BMP180;15488;48.114;11.532;2023-03-31T00:58:00;94848.00;;;17.60
15680;BMP180;15488;48.114;11.532;2023-03-31T01:00:30;94834.00;;;17.50
15680;BMP180;15488;48.114;11.532;2023-03-31T01:03:02;94837.00;;;17.50
15680;BMP180;15488;48.114;11.532;2023-03-31T01:05:33;94840.00;;;17.50
15680;BMP180;15488;48.114;11.532;2023-03-31T01:08:01;94834.00;;;17.50
15680;BMP180;15488;48.114;11.532;2023-03-31T01:10:33;94826.00;;;17.50
15680;BMP180;15488;48.114;11.532;2023-03-31T01:13:08;94822.00;;;17.60
15680;BMP180;15488;48.114;11.532;2023-03-31T01:15:37;94813.00;;;17.60
15680;BMP180;15488;48.114;11.532;2023-03-31T01:18:06;94808.00;;;17.70
15680;BMP180;15488;48.114;11.532;2023-03-31T01:20:45;94816.00;;;17.70
15680;BMP180;15488;48.114;11.532;2023-03-31T01:23:34;94813.00;;;17.80
15680;BMP180;15488;48.114;11.532;2023-03-31T01:29:11;94799.00;;;17.80
15680;BMP180;15488;48.114;11.532;2023-03-31T01:32:07;94791.00;;;17.90
15680;BMP180;15488;48.114;11.532;2023-03-31T01:35:04;94780.00;;;17.80
15680;BMP180;15488;48.114;11.532;2023-03-31T01:40:43;94776.00;;;17.80
15680;BMP180;15488;48.114;11.532;2023-03-31T01:43:16;94769.00;;;17.80
15680;BMP180;15488;48.114;11.532;2023-03-31T01:45:54;94777.00;;;17.80
15680;BMP180;15488;48.114;11.532;2023-03-31T01:48:34;94779.00;;;17.80
15680;BMP180;15488;48.114;11.532;2023-03-31T01:51:13;94771.00;;;17.80
15680;BMP180;15488;48.114;11.532;2023-03-31T01:53:47;94769.00;;;17.80
15680;BMP180;15488;48.114;11.532;2023-03-31T01:56:21;94755.00;;;17.90
15680;BMP180;15488;48.114;11.532;2023-03-31T01:58:55;94751.00;;;17.80
15680;BMP180;15488;48.114;11.532;2023-03-31T02:01:27;94750.00;;;17.90
15680;BMP180;15488;48.114;11.532;2023-03-31T02:03:59;94757.00;;;17.80
15680;BMP180;15488;48.114;11.532;2023-03-31T02:06:29;94738.00;;;17.80
15680;BMP180;15488;48.114;11.532;2023-03-31T02:09:02;94731.00;;;17.80
15680;BMP180;15488;48.114;11.532;2023-03-31T02:11:33;94730.00;;;17.90
15680;BMP180;15488;48.114;11.532;2023-03-31T02:14:03;94725.00;;;17.80
15680;BMP180;15488;48.114;11.532;2023-03-31T02:16:34;94728.00;;;17.80
15680;BMP180;15488;48.114;11.532;2023-03-31T02:19:08;94721.00;;;17.80
15680;BMP180;15488;48.114;11.532;2023-03-31T02:21:40;94718.00;;;17.90
15680;BMP180;15488;48.114;11.532;2023-03-31T02:24:11;94714.00;;;17.80
15680;BMP180;15488;48.114;11.532;2023-03-31T02:26:44;94710.00;;;17.80
15680;BMP180;15488;48.114;11.532;2023-03-31T02:29:13;94713.00;;;17.80
15680;BMP180;15488;48.114;11.532;2023-03-31T02:31:45;94720.00;;;17.70
15680;BMP180;15488;48.114;11.532;2023-03-31T02:34:14;94719.00;;;17.70
15680;BMP180;15488;48.114;11.532;2023-03-31T02:36:42;94723.00;;;17.80
15680;BMP180;15488;48.114;11.532;2023-03-31T02:39:13;94720.00;;;17.70
15680;BMP180;15488;48.114;11.532;2023-03-31T02:41:43;94612.00;;;17.80
15680;BMP180;15488;48.114;11.532;2023-03-31T02:44:11;94716.00;;;17.80
15680;BMP180;15488;48.114;11.532;2023-03-31T02:46:39;94720.00;;;17.70
15680;BMP180;15488;48.114;11.532;2023-03-31T02:49:07;94722.00;;;17.60
15680;BMP180;15488;48.114;11.532;2023-03-31T02:52:09;94722.00;;;17.60
15680;BMP180;15488;48.114;11.532;2023-03-31T02:55:02;94725.00;;;17.60
15680;BMP180;15488;48.114;11.532;2023-03-31T02:57:52;94718.00;;;17.60
15680;BMP180;15488;48.114;11.532;2023-03-31T03:00:30;94717.00;;;17.50
15680;BMP180;15488;48.114;11.532;2023-03-31T03:03:13;94702.00;;;17.40
15680;BMP180;15488;48.114;11.532;2023-03-31T03:05:47;94695.00;;;17.40
15680;BMP180;15488;48.114;11.532;2023-03-31T03:08:25;94694.00;;;17.50
15680;BMP180;15488;48.114;11.532;2023-03-31T03:11:01;94692.00;;;17.50
15680;BMP180;15488;48.114;11.532;2023-03-31T03:13:36;94704.00;;;17.50
15680;BMP180;15488;48.114;11.532;2023-03-31T03:16:09;94704.00;;;17.60
15680;BMP180;15488;48.114;11.532;2023-03-31T03:18:39;94701.00;;;17.50
15680;BMP180;15488;48.114;11.532;2023-03-31T03:21:06;94703.00;;;17.50
15680;BMP180;15488;48.114;11.532;2023-03-31T03:23:33;94706.00;;;17.60
15680;BMP180;15488;48.114;11.532;2023-03-31T03:26:01;94718.00;;;17.50
15680;BMP180;15488;48.114;11.532;2023-03-31T03:28:28;94718.00;;;17.60
15680;BMP180;15488;48.114;11.532;2023-03-31T03:30:57;94723.00;;;17.50
15680;BMP180;15488;48.114;11.532;2023-03-31T03:33:25;94726.00;;;17.60
15680;BMP180;15488;48.114;11.532;2023-03-31T03:35:52;94730.00;;;17.60
15680;BMP180;15488;48.114;11.532;2023-03-31T03:38:19;94740.00;;;17.50
15680;BMP180;15488;48.114;11.532;2023-03-31T03:40:51;94743.00;;;17.50
15680;BMP180;15488;48.114;11.532;2023-03-31T03:43:18;94750.00;;;17.50
15680;BMP180;15488;48.114;11.532;2023-03-31T03:45:47;94741.00;;;17.50
15680;BMP180;15488;48.114;11.532;2023-03-31T03:48:16;94743.00;;;17.40
15680;BMP180;15488;48.114;11.532;2023-03-31T03:50:45;94738.00;;;17.40
15680;BMP180;15488;48.114;11.532;2023-03-31T03:53:13;94721.00;;;17.40
15680;BMP180;15488;48.114;11.532;2023-03-31T03:55:41;94714.00;;;17.40
15680;BMP180;15488;48.114;11.532;2023-03-31T03:58:10;94712.00;;;17.30
15680;BMP180;15488;48.114;11.532;2023-03-31T04:00:37;94698.00;;;17.30
15680;BMP180;15488;48.114;11.532;2023-03-31T04:03:04;94694.00;;;17.40
15680;BMP180;15488;48.114;11.532;2023-03-31T04:05:33;94689.00;;;17.30
15680;BMP180;15488;48.114;11.532;2023-03-31T04:08:01;94678.00;;;17.40
15680;BMP180;15488;48.114;11.532;2023-03-31T04:10:29;94669.00;;;17.40
15680;BMP180;15488;48.114;11.532;2023-03-31T04:12:57;94660.00;;;17.40
15680;BMP180;15488;48.114;11.532;2023-03-31T04:15:24;94657.00;;;17.30
15680;BMP180;15488;48.114;11.532;2023-03-31T04:17:52;94656.00;;;17.30
15680;BMP180;15488;48.114;11.532;2023-03-31T04:20:20;94657.00;;;17.40
15680;BMP180;15488;48.114;11.532;2023-03-31T04:22:48;94649.00;;;17.40
15680;BMP180;15488;48.114;11.532;2023-03-31T04:25:16;94642.00;;;17.40
15680;BMP180;15488;48.114;11.532;2023-03-31T04:27:45;94642.00;;;17.30
15680;BMP180;15488;48.114;11.532;2023-03-31T04:30:16;94631.00;;;17.40
15680;BMP180;15488;48.114;11.532;2023-03-31T04:32:49;94625.00;;;17.30
15680;BMP180;15488;48.114;11.532;2023-03-31T04:35:18;94623.00;;;17.30
15680;BMP180;15488;48.114;11.532;2023-03-31T04:37:47;94612.00;;;17.30
15680;BMP180;15488;48.114;11.532;2023-03-31T04:40:15;94600.00;;;17.30
15680;BMP180;15488;48.114;11.532;2023-03-31T04:42:42;94593.00;;;17.30
15680;BMP180;15488;48.114;11.532;2023-03-31T04:45:11;94585.00;;;17.30
15680;BMP180;15488;48.114;11.532;2023-03-31T04:47:38;94594.00;;;17.50
15680;BMP180;15488;48.114;11.532;2023-03-31T04:50:07;94588.00;;;17.50
15680;BMP180;15488;48.114;11.532;2023-03-31T04:52:35;94597.00;;;17.40
15680;BMP180;15488;48.114;11.532;2023-03-31T04:55:06;94594.00;;;17.40
15680;BMP180;15488;48.114;11.532;2023-03-31T04:57:33;94572.00;;;17.40
15680;BMP180;15488;48.114;11.532;2023-03-31T05:00:02;94544.00;;;17.50
15680;BMP180;15488;48.114;11.532;2023-03-31T05:02:32;94533.00;;;17.40
15680;BMP180;15488;48.114;11.532;2023-03-31T05:05:00;94519.00;;;17.40
15680;BMP180;15488;48.114;11.532;2023-03-31T05:07:27;94509.00;;;17.50
15680;BMP180;15488;48.114;11.532;2023-03-31T05:09:55;94502.00;;;17.40
15680;BMP180;15488;48.114;11.532;2023-03-31T05:12:23;94496.00;;;17.40
15680;BMP180;15488;48.114;11.532;2023-03-31T05:14:51;94498.00;;;17.40
15680;BMP180;15488;48.114;11.532;2023-03-31T05:17:19;94483.00;;;17.40
15680;BMP180;15488;48.114;11.532;2023-03-31T05:19:47;94475.00;;;17.50
15680;BMP180;15488;48.114;11.532;2023-03-31T05:22:15;94456.00;;;17.40
15680;BMP180;15488;48.114;11.532;2023-03-31T05:24:45;94446.00;;;17.30
15680;BMP180;15488;48.114;11.532;2023-03-31T05:27:12;94429.00;;;17.30
15680;BMP180;15488;48.114;11.532;2023-03-31T05:29:41;94435.00;;;17.30
15680;BMP180;15488;48.114;11.532;2023-03-31T05:32:09;94435.00;;;17.30
15680;BMP180;15488;48.114;11.532;2023-03-31T05:34:36;94428.00;;;17.30
15680;BMP180;15488;48.114;11.532;2023-03-31T05:37:04;94433.00;;;17.20
15680;BMP180;15488;48.114;11.532;2023-03-31T05:39:31;94414.00;;;17.20
15680;BMP180;15488;48.114;11.532;2023-03-31T05:41:58;94412.00;;;17.20
15680;BMP180;15488;48.114;11.532;2023-03-31T05:44:26;94401.00;;;17.20
15680;BMP180;15488;48.114;11.532;2023-03-31T05:46:55;94389.00;;;17.20
15680;BMP180;15488;48.114;11.532;2023-03-31T05:49:22;94375.00;;;17.30
15680;BMP180;15488;48.114;11.532;2023-03-31T05:51:50;94362.00;;;17.30
15680;BMP180;15488;48.114;11.532;2023-03-31T05:54:18;94366.00;;;17.30
15680;BMP180;15488;48.114;11.532;2023-03-31T05:56:46;94352.00;;;17.30
15680;BMP180;15488;48.114;11.532;2023-03-31T05:59:14;94352.00;;;17.40
15680;BMP180;15488;48.114;11.532;2023-03-31T06:01:41;94337.00;;;17.30
15680;BMP180;15488;48.114;11.532;2023-03-31T06:04:10;94334.00;;;17.30
15680;BMP180;15488;48.114;11.532;2023-03-31T06:06:37;94337.00;;;17.30
15680;BMP180;15488;48.114;11.532;2023-03-31T06:09:05;94329.00;;;17.30
15680;BMP180;15488;48.114;11.532;2023-03-31T06:11:33;94317.00;;;17.40
15680;BMP180;15488;48.114;11.532;2023-03-31T06:14:00;94317.00;;;17.30
15680;BMP180;15488;48.114;11.532;2023-03-31T06:16:28;94310.00;;;17.30
15680;BMP180;15488;48.114;11.532;2023-03-31T06:18:55;94299.00;;;17.30
15680;BMP180;15488;48.114;11.532;2023-03-31T06:21:24;94280.00;;;17.30
15680;BMP180;15488;48.114;11.532;2023-03-31T06:23:51;94277.00;;;17.30
15680;BMP180;15488;48.114;11.532;2023-03-31T06:26:21;94270.00;;;17.40
15680;BMP180;15488;48.114;11.532;2023-03-31T06:28:49;94262.00;;;17.40
15680;BMP180;15488;48.114;11.532;2023-03-31T06:31:18;94263.00;;;17.50
15680;BMP180;15488;48.114;11.532;2023-03-31T06:33:46;94264.00;;;17.40
15680;BMP180;15488;48.114;11.532;2023-03-31T06:36:16;94254.00;;;17.50
15680;BMP180;15488;48.114;11.532;2023-03-31T06:38:45;94248.00;;;17.50
15680;BMP180;15488;48.114;11.532;2023-03-31T06:41:15;94255.00;;;17.50
15680;BMP180;15488;48.114;11.532;2023-03-31T06:43:43;94256.00;;;17.50
15680;BMP180;15488;48.114;11.532;2023-03-31T06:46:11;94242.00;;;17.50
15680;BMP180;15488;48.114;11.532;2023-03-31T06:48:39;94238.00;;;17.60
15680;BMP180;15488;48.114;11.532;2023-03-31T06:51:09;94230.00;;;17.60
15680;BMP180;15488;48.114;11.532;2023-03-31T06:53:36;94236.00;;;17.60
15680;BMP180;15488;48.114;11.532;2023-03-31T06:56:06;94235.00;;;17.60
15680;BMP180;15488;48.114;11.532;2023-03-31T06:58:33;94237.00;;;17.80
15680;BMP180;15488;48.114;11.532;2023-03-31T07:01:02;94254.00;;;17.70
15680;BMP180;15488;48.114;11.532;2023-03-31T07:03:31;94265.00;;;17.60
15680;BMP180;15488;48.114;11.532;2023-03-31T07:05:58;94277.00;;;17.80
15680;BMP180;15488;48.114;11.532;2023-03-31T07:08:26;94312.00;;;17.80
15680;BMP180;15488;48.114;11.532;2023-03-31T07:10:55;94334.00;;;17.90
15680;BMP180;15488;48.114;11.532;2023-03-31T07:13:25;94365.00;;;17.90
15680;BMP180;15488;48.114;11.532;2023-03-31T07:15:53;94363.00;;;17.90
15680;BMP180;15488;48.114;11.532;2023-03-31T07:18:21;94341.00;;;17.90
15680;BMP180;15488;48.114;11.532;2023-03-31T07:20:51;94359.00;;;17.80
15680;BMP180;15488;48.114;11.532;2023-03-31T07:23:19;94377.00;;;17.80
15680;BMP180;15488;48.114;11.532;2023-03-31T07:25:47;94399.00;;;17.90
15680;BMP180;15488;48.114;11.532;2023-03-31T07:28:14;94399.00;;;17.90
15680;BMP180;15488;48.114;11.532;2023-03-31T07:30:43;94399.00;;;17.80
15680;BMP180;15488;48.114;11.532;2023-03-31T07:33:11;94395.00;;;17.90
15680;BMP180;15488;48.114;11.532;2023-03-31T07:35:39;94373.00;;;18.00
15680;BMP180;15488;48.114;11.532;2023-03-31T07:38:24;94382.00;;;17.90
15680;BMP180;15488;48.114;11.532;2023-03-31T07:40:51;94352.00;;;17.90
15680;BMP180;15488;48.114;11.532;2023-03-31T07:43:18;94329.00;;;17.90
15680;BMP180;15488;48.114;11.532;2023-03-31T07:45:47;94313.00;;;17.90
15680;BMP180;15488;48.114;11.532;2023-03-31T07:48:15;94314.00;;;17.90
15680;BMP180;15488;48.114;11.532;2023-03-31T07:50:42;94326.00;;;17.90
15680;BMP180;15488;48.114;11.532;2023-03-31T07:53:10;94315.00;;;17.90
15680;BMP180;15488;48.114;11.532;2023-03-31T07:55:40;94310.00;;;17.90
15680;BMP180;15488;48.114;11.532;2023-03-31T07:58:07;94300.00;;;17.90
15680;BMP180;15488;48.114;11.532;2023-03-31T08:00:36;94287.00;;;18.00
15680;BMP180;15488;48.114;11.532;2023-03-31T08:03:05;94270.00;;;18.00
15680;BMP180;15488;48.114;11.532;2023-03-31T08:05:33;94257.00;;;18.00
15680;BMP180;15488;48.114;11.532;2023-03-31T08:08:00;94238.00;;;18.10
15680;BMP180;15488;48.114;11.532;2023-03-31T08:10:28;94254.00;;;18.10
15680;BMP180;15488;48.114;11.532;2023-03-31T08:12:56;94252.00;;;18.10
15680;BMP180;15488;48.114;11.532;2023-03-31T08:15:23;94255.00;;;18.00
15680;BMP180;15488;48.114;11.532;2023-03-31T08:17:51;94237.00;;;18.00
15680;BMP180;15488;48.114;11.532;2023-03-31T08:20:20;94256.00;;;18.10
15680;BMP180;15488;48.114;11.532;2023-03-31T08:22:47;94258.00;;;18.10
15680;BMP180;15488;48.114;11.532;2023-03-31T08:25:14;94249.00;;;18.10
15680;BMP180;15488;48.114;11.532;2023-03-31T08:27:42;94246.00;;;18.10
15680;BMP180;15488;48.114;11.532;2023-03-31T08:30:11;94220.00;;;18.00
15680;BMP180;15488;48.114;11.532;2023-03-31T08:32:39;94238.00;;;18.10
15680;BMP180;15488;48.114;11.532;2023-03-31T08:35:07;94238.00;;;18.00
15680;BMP180;15488;48.114;11.532;2023-03-31T08:37:36;94226.00;;;18.00
15680;BMP180;15488;48.114;11.532;2023-03-31T08:40:06;94246.00;;;18.00
15680;BMP180;15488;48.114;11.532;2023-03-31T08:42:37;94239.00;;;18.00
15680;BMP180;15488;48.114;11.532;2023-03-31T08:45:12;94263.00;;;18.00
15680;BMP180;15488;48.114;11.532;2023-03-31T08:47:44;94273.00;;;18.10
15680;BMP180;15488;48.114;11.532;2023-03-31T08:50:16;94322.00;;;18.10
15680;BMP180;15488;48.114;11.532;2023-03-31T08:52:49;94313.00;;;17.90
15680;BMP180;15488;48.114;11.532;2023-03-31T08:55:23;94302.00;;;17.90
15680;BMP180;15488;48.114;11.532;2023-03-31T08:57:58;94337.00;;;17.80
15680;BMP180;15488;48.114;11.532;2023-03-31T09:00:28;94338.00;;;17.80
15680;BMP180;15488;48.114;11.532;2023-03-31T09:03:01;94332.00;;;17.90
15680;BMP180;15488;48.114;11.532;2023-03-31T09:05:36;94319.00;;;17.70
15680;BMP180;15488;48.114;11.532;2023-03-31T09:08:17;94310.00;;;17.70
15680;BMP180;15488;48.114;11.532;2023-03-31T09:10:52;94321.00;;;17.70
15680;BMP180;15488;48.114;11.532;2023-03-31T09:13:48;94300.00;;;17.80
15680;BMP180;15488;48.114;11.532;2023-03-31T09:16:21;94284.00;;;17.70
15680;BMP180;15488;48.114;11.532;2023-03-31T09:18:52;94279.00;;;17.90
15680;BMP180;15488;48.114;11.532;2023-03-31T09:21:27;94288.00;;;17.80
15680;BMP180;15488;48.114;11.532;2023-03-31T09:24:02;94284.00;;;17.90
15680;BMP180;15488;48.114;11.532;2023-03-31T09:26:36;94270.00;;;17.90
15680;BMP180;15488;48.114;11.532;2023-03-31T09:29:09;94267.00;;;18.10
15680;BMP180;15488;48.114;11.532;2023-03-31T09:31:42;94257.00;;;18.10
15680;BMP180;15488;48.114;11.532;2023-03-31T09:34:14;94259.00;;;18.00
15680;BMP180;15488;48.114;11.532;2023-03-31T09:36:42;94249.00;;;18.10
15680;BMP180;15488;48.114;11.532;2023-03-31T09:39:13;94237.00;;;18.20
15680;BMP180;15488;48.114;11.532;2023-03-31T09:41:44;94229.00;;;18.30
15680;BMP180;15488;48.114;11.532;2023-03-31T09:44:23;94231.00;;;18.30
15680;BMP180;15488;48.114;11.532;2023-03-31T09:46:52;94203.00;;;18.50
15680;BMP180;15488;48.114;11.532;2023-03-31T09:49:22;94212.00;;;18.50
15680;BMP180;15488;48.114;11.532;2023-03-31T09:51:59;94209.00;;;18.50
15680;BMP180;15488;48.114;11.532;2023-03-31T09:54:36;94214.00;;;18.60
15680;BMP180;15488;48.114;11.532;2023-03-31T09:57:14;94212.00;;;18.60
15680;BMP180;15488;48.114;11.532;2023-03-31T09:59:41;94225.00;;;18.70
15680;BMP180;15488;48.114;11.532;2023-03-31T10:02:33;94223.00;;;18.90
15680;BMP180;15488;48.114;11.532;2023-03-31T10:05:02;94218.00;;;18.90
15680;BMP180;15488;48.114;11.532;2023-03-31T10:07:30;94217.00;;;18.90
15680;BMP180;15488;48.114;11.532;2023-03-31T10:10:00;94210.00;;;18.90
15680;BMP180;15488;48.114;11.532;2023-03-31T10:12:29;94209.00;;;19.00
15680;BMP180;15488;48.114;11.532;2023-03-31T10:15:14;94204.00;;;19.00
15680;BMP180;15488;48.114;11.532;2023-03-31T10:17:44;94208.00;;;19.10
15680;BMP180;15488;48.114;11.532;2023-03-31T10:20:26;94185.00;;;19.10
15680;BMP180;15488;48.114;11.532;2023-03-31T10:22:54;94189.00;;;19.20
15680;BMP180;15488;48.114;11.532;2023-03-31T10:25:27;94176.00;;;19.30
15680;BMP180;15488;48.114;11.532;2023-03-31T10:27:55;94166.00;;;19.40
15680;BMP180;15488;48.114;11.532;2023-03-31T10:30:25;94164.00;;;19.50
15680;BMP180;15488;48.114;11.532;2023-03-31T10:32:54;94164.00;;;19.50
15680;BMP180;15488;48.114;11.532;2023-03-31T10:35:25;94148.00;;;19.50
15680;BMP180;15488;48.114;11.532;2023-03-31T10:37:55;94145.00;;;19.60
15680;BMP180;15488;48.114;11.532;2023-03-31T10:40:26;94142.00;;;19.60
15680;BMP180;15488;48.114;11.532;2023-03-31T10:43:12;94159.00;;;19.60
15680;BMP180;15488;48.114;11.532;2023-03-31T10:45:42;94158.00;;;19.60
15680;BMP180;15488;48.114;11.532;2023-03-31T10:48:18;94143.00;;;19.60
15680;BMP180;15488;48.114;11.532;2023-03-31T10:50:46;94131.00;;;19.80
15680;BMP180;15488;48.114;11.532;2023-03-31T10:53:15;94132.00;;;19.80
15680;BMP180;15488;48.114;11.532;2023-03-31T10:56:09;94123.00;;;19.80
15680;BMP180;15488;48.114;11.532;2023-03-31T10:58:52;94105.00;;;19.90
15680;BMP180;15488;48.114;11.532;2023-03-31T11:01:31;94106.00;;;20.00
15680;BMP180;15488;48.114;11.532;2023-03-31T11:04:24;94098.00;;;20.00
15680;BMP180;15488;48.114;11.532;2023-03-31T11:06:59;94099.00;;;20.10
15680;BMP180;15488;48.114;11.532;2023-03-31T11:09:38;94095.00;;;20.10
15680;BMP180;15488;48.114;11.532;2023-03-31T11:12:17;94091.00;;;20.10
15680;BMP180;15488;48.114;11.532;2023-03-31T11:15:06;94084.00;;;20.10
15680;BMP180;15488;48.114;11.532;2023-03-31T11:17:50;94102.00;;;20.10
15680;BMP180;15488;48.114;11.532;2023-03-31T11:20:27;94138.00;;;20.10
15680;BMP180;15488;48.114;11.532;2023-03-31T11:23:02;94241.00;;;20.00
15680;BMP180;15488;48.114;11.532;2023-03-31T11:25:36;94251.00;;;19.90
15680;BMP180;15488;48.114;11.532;2023-03-31T11:28:35;94237.00;;;19.70
15680;BMP180;15488;48.114;11.532;2023-03-31T11:31:13;94220.00;;;19.50
15680;BMP180;15488;48.114;11.532;2023-03-31T11:34:04;94166.00;;;19.10
15680;BMP180;15488;48.114;11.532;2023-03-31T11:36:46;94162.00;;;19.10
15680;BMP180;15488;48.114;11.532;2023-03-31T11:39:26;94148.00;;;18.90
15680;BMP180;15488;48.114;11.532;2023-03-31T11:42:00;94149.00;;;18.80
15680;BMP180;15488;48.114;11.532;2023-03-31T11:44:35;94131.00;;;18.70
15680;BMP180;15488;48.114;11.532;2023-03-31T11:47:07;94122.00;;;18.60
15680;BMP180;15488;48.114;11.532;2023-03-31T11:49:38;94107.00;;;18.50
15680;BMP180;15488;48.114;11.532;2023-03-31T11:52:11;94119.00;;;18.50
15680;BMP180;15488;48.114;11.532;2023-03-31T11:54:42;94104.00;;;18.40
15680;BMP180;15488;48.114;11.532;2023-03-31T11:57:15;94109.00;;;18.40
15680;BMP180;15488;48.114;11.532;2023-03-31T11:59:50;94093.00;;;18.40
15680;BMP180;15488;48.114;11.532;2023-03-31T12:02:29;94078.00;;;18.40
15680;BMP180;15488;48.114;11.532;2023-03-31T12:05:03;94070.00;;;18.40
15680;BMP180;15488;48.114;11.532;2023-03-31T12:07:38;94059.00;;;18.40
15680;BMP180;15488;48.114;11.532;2023-03-31T12:10:18;94038.00;;;18.40
15680;BMP180;15488;48.114;11.532;2023-03-31T12:12:50;94045.00;;;18.50
15680;BMP180;15488;48.114;11.532;2023-03-31T12:15:24;94042.00;;;18.50
15680;BMP180;15488;48.114;11.532;2023-03-31T12:17:58;94043.00;;;18.60
15680;BMP180;15488;48.114;11.532;2023-03-31T12:20:30;94039.00;;;18.70
15680;BMP180;15488;48.114;11.532;2023-03-31T12:23:00;94030.00;;;18.70
15680;BMP180;15488;48.114;11.532;2023-03-31T12:25:39;94022.00;;;18.70
15680;BMP180;15488;48.114;11.532;2023-03-31T12:28:09;94029.00;;;18.80
15680;BMP180;15488;48.114;11.532;2023-03-31T12:30:40;94037.00;;;18.90
15680;BMP180;15488;48.114;11.532;2023-03-31T12:33:14;94038.00;;;19.00
15680;BMP180;15488;48.114;11.532;2023-03-31T12:36:04;94043.00;;;19.00
15680;BMP180;15488;48.114;11.532;2023-03-31T12:38:41;94035.00;;;19.10
15680;BMP180;15488;48.114;11.532;2023-03-31T12:41:18;94026.00;;;19.10
15680;BMP180;15488;48.114;11.532;2023-03-31T12:44:04;94034.00;;;19.10
15680;BMP180;15488;48.114;11.532;2023-03-31T12:47:13;94038.00;;;19.20
15680;BMP180;15488;48.114;11.532;2023-03-31T12:50:01;94040.00;;;19.20
15680;BMP180;15488;48.114;11.532;2023-03-31T12:52:41;94039.00;;;19.20
15680;BMP180;15488;48.114;11.532;2023-03-31T12:55:35;94026.00;;;19.40
15680;BMP180;15488;48.114;11.532;2023-03-31T12:58:37;94033.00;;;19.10
15680;BMP180;15488;48.114;11.532;2023-03-31T13:01:11;94045.00;;;19.30
15680;BMP180;15488;48.114;11.532;2023-03-31T13:03:49;94061.00;;;19.30
15680;BMP180;15488;48.114;11.532;2023-03-31T13:09:45;94049.00;;;19.30
15680;BMP180;15488;48.114;11.532;2023-03-31T13:12:16;94015.00;;;19.30
15680;BMP180;15488;48.114;11.532;2023-03-31T13:14:45;94038.00;;;19.20
15680;BMP180;15488;48.114;11.532;2023-03-31T13:17:28;94070.00;;;19.20
15680;BMP180;15488;48.114;11.532;2023-03-31T13:20:16;94080.00;;;19.10
15680;BMP180;15488;48.114;11.532;2023-03-31T13:22:59;93992.00;;;19.00
15680;BMP180;15488;48.114;11.532;2023-03-31T13:25:42;93973.00;;;18.90
15680;BMP180;15488;48.114;11.532;2023-03-31T13:28:15;93989.00;;;18.90
15680;BMP180;15488;48.114;11.532;2023-03-31T13:30:50;93983.00;;;18.80
15680;BMP180;15488;48.114;11.532;2023-03-31T13:33:24;94008.00;;;18.90
15680;BMP180;15488;48.114;11.532;2023-03-31T13:36:05;94010.00;;;18.90
15680;BMP180;15488;48.114;11.532;2023-03-31T13:38:44;94001.00;;;19.10
15680;BMP180;15488;48.114;11.532;2023-03-31T13:41:23;93988.00;;;19.50
15680;BMP180;15488;48.114;11.532;2023-03-31T13:50:16;94032.00;;;21.60
15680;BMP180;15488;48.114;11.532;2023-03-31T13:52:56;94027.00;;;22.20
15680;BMP180;15488;48.114;11.532;2023-03-31T13:55:47;94020.00;;;22.70
15680;BMP180;15488;48.114;11.532;2023-03-31T13:58:37;94012.00;;;23.10
15680;BMP180;15488;48.114;11.532;2023-03-31T14:01:30;94002.00;;;23.30
15680;BMP180;15488;48.114;11.532;2023-03-31T14:04:07;94000.00;;;23.30
15680;BMP180;15488;48.114;11.532;2023-03-31T14:06:40;93988.00;;;23.30
15680;BMP180;15488;48.114;11.532;2023-03-31T14:09:18;93998.00;;;23.40
15680;BMP180;15488;48.114;11.532;2023-03-31T14:11:48;94004.00;;;23.30
15680;BMP180;15488;48.114;11.532;2023-03-31T14:14:17;94014.00;;;23.10
15680;BMP180;15488;48.114;11.532;2023-03-31T14:16:47;94022.00;;;23.00
15680;BMP180;15488;48.114;11.532;2023-03-31T14:19:36;94026.00;;;22.80
15680;BMP180;15488;48.114;11.532;2023-03-31T14:22:14;94026.00;;;22.50
15680;BMP180;15488;48.114;11.532;2023-03-31T14:24:49;94012.00;;;22.30
15680;BMP180;15488;48.114;11.532;2023-03-31T14:27:29;94024.00;;;22.10
15680;BMP180;15488;48.114;11.532;2023-03-31T14:30:09;94024.00;;;21.90
15680;BMP180;15488;48.114;11.532;2023-03-31T14:32:44;94035.00;;;21.70
15680;BMP180;15488;48.114;11.532;2023-03-31T14:35:25;94045.00;;;21.60
15680;BMP180;15488;48.114;11.532;2023-03-31T14:37:55;94058.00;;;21.40
15680;BMP180;15488;48.114;11.532;2023-03-31T14:40:25;94143.00;;;21.10
15680;BMP180;15488;48.114;11.532;2023-03-31T14:42:53;94110.00;;;20.60